Avenel, New Jersey
Current Conditions -  °F | °C
As of 9:55 AM on Monday 22 Dec 2014 (Local Time) from KLDJ Reporting Station
Overcast Overcast  
Wind Chill:   Ceiling: 1000
Heat Index:   Visibility: 7mi
Dew Point:   Wind: 3mph
Humidity: 83%   Direction: 10°N
Pressure: 30.35"   Gusts: NA
Location:  40.58°N, 74.28°W
Report Text: KLDJ 221455Z AUTO 01003KT 7SM OVC010 05/03 A3035 RMK AO2 T00510025
Loading
Personal Weather Stations






























Interactive Weather Map New forecast layout! Learn more

10-Day Weather Forecast

Advertisements
Track Severe Weather on mobile